createdAt,value
2018-08-13T00:00:37.716Z,18.60
2018-08-13T00:03:05.468Z,18.60
2018-08-13T00:05:32.978Z,18.50
2018-08-13T00:08:00.473Z,18.50
2018-08-13T00:10:27.998Z,18.50
2018-08-13T00:12:55.734Z,18.50
2018-08-13T00:15:23.239Z,18.50
2018-08-13T00:17:50.732Z,18.40
2018-08-13T00:20:18.589Z,18.40
2018-08-13T00:22:46.077Z,18.30
2018-08-13T00:25:14.268Z,18.30
2018-08-13T00:27:41.757Z,18.30
2018-08-13T00:30:09.261Z,18.20
2018-08-13T00:32:36.918Z,18.10
2018-08-13T00:35:04.420Z,18.10
2018-08-13T00:37:31.923Z,18.10
2018-08-13T00:39:59.449Z,18.00
2018-08-13T00:42:26.967Z,18.00
2018-08-13T00:44:54.466Z,17.90
2018-08-13T00:47:21.961Z,17.90
2018-08-13T00:49:49.479Z,17.80
2018-08-13T00:52:17.122Z,17.80
2018-08-13T00:54:44.632Z,17.70
2018-08-13T00:57:12.525Z,17.70
2018-08-13T00:59:40.038Z,17.60
2018-08-13T01:02:07.547Z,17.60
2018-08-13T01:04:35.065Z,17.50
2018-08-13T01:07:02.559Z,17.50
2018-08-13T01:09:30.050Z,17.50
2018-08-13T01:11:57.562Z,17.40
2018-08-13T01:14:25.113Z,17.40
2018-08-13T01:16:52.598Z,17.40
2018-08-13T01:19:20.102Z,17.40
2018-08-13T01:21:47.591Z,17.40
2018-08-13T01:24:15.107Z,17.30
2018-08-13T01:26:42.686Z,17.30
2018-08-13T01:29:10.179Z,17.20
2018-08-13T01:31:37.884Z,17.10
2018-08-13T01:34:05.464Z,17.00
2018-08-13T01:36:32.978Z,17.10
2018-08-13T01:39:01.255Z,17.00
2018-08-13T01:41:29.536Z,17.00
2018-08-13T01:43:57.797Z,17.00
2018-08-13T01:46:25.453Z,17.00
2018-08-13T01:48:52.938Z,16.90
2018-08-13T01:51:20.445Z,16.90
2018-08-13T01:53:48.004Z,17.00
2018-08-13T01:56:15.774Z,17.00
2018-08-13T01:58:43.253Z,17.00
2018-08-13T02:01:10.878Z,17.00
2018-08-13T02:03:38.361Z,17.00
2018-08-13T02:06:05.868Z,16.90
2018-08-13T02:08:33.359Z,17.00
2018-08-13T02:11:00.871Z,17.10
2018-08-13T02:13:28.358Z,17.10
2018-08-13T02:15:55.867Z,17.10
2018-08-13T02:18:23.365Z,17.10
2018-08-13T02:20:50.867Z,17.10
2018-08-13T02:23:18.366Z,17.20
2018-08-13T02:25:45.889Z,17.10
2018-08-13T02:28:13.762Z,17.00
2018-08-13T02:30:41.266Z,17.00
2018-08-13T02:33:08.751Z,16.90
2018-08-13T02:35:36.438Z,16.80
2018-08-13T02:38:03.934Z,16.80
2018-08-13T02:40:31.450Z,16.60
2018-08-13T02:42:58.929Z,16.60
2018-08-13T02:45:26.500Z,16.60
2018-08-13T02:47:53.999Z,16.60
2018-08-13T02:50:21.500Z,16.60
2018-08-13T02:52:49.015Z,16.50
2018-08-13T02:55:17.447Z,16.50
2018-08-13T02:57:45.027Z,16.50
2018-08-13T03:00:13.327Z,16.50
2018-08-13T03:02:40.814Z,16.50
2018-08-13T03:05:15.044Z,16.50
2018-08-13T03:07:42.539Z,16.40
2018-08-13T03:10:10.041Z,16.40
2018-08-13T03:12:37.570Z,16.40
2018-08-13T03:15:05.080Z,16.30
2018-08-13T03:17:32.596Z,16.30
2018-08-13T03:20:00.086Z,16.20
2018-08-13T03:22:28.364Z,16.20
2018-08-13T03:24:55.890Z,16.20
2018-08-13T03:27:23.407Z,16.20
2018-08-13T03:29:50.899Z,16.10
2018-08-13T03:32:18.425Z,16.10
2018-08-13T03:34:45.928Z,16.00
2018-08-13T03:37:13.817Z,16.10
2018-08-13T03:39:41.326Z,16.00
2018-08-13T03:42:08.864Z,16.00
2018-08-13T03:44:36.441Z,16.10
2018-08-13T03:47:03.961Z,16.10
2018-08-13T03:49:31.477Z,16.20
2018-08-13T03:51:59.001Z,16.20
2018-08-13T03:54:26.978Z,16.20
2018-08-13T03:56:54.479Z,16.30
2018-08-13T03:59:21.985Z,16.30
2018-08-13T04:01:49.493Z,16.30
2018-08-13T04:04:16.969Z,16.10
2018-08-13T04:06:45.450Z,16.00
2018-08-13T04:09:12.938Z,15.90
2018-08-13T04:11:40.437Z,16.00
2018-08-13T04:14:08.223Z,16.00
2018-08-13T04:16:35.882Z,16.00
2018-08-13T04:19:04.157Z,16.30
2018-08-13T04:21:31.686Z,16.30
2018-08-13T04:23:59.173Z,16.40
2018-08-13T04:26:27.045Z,16.50
2018-08-13T04:28:54.531Z,16.50
2018-08-13T04:31:22.031Z,16.60
2018-08-13T04:33:49.514Z,16.70
2018-08-13T04:36:17.785Z,17.10
2018-08-13T04:38:45.530Z,17.10
2018-08-13T04:41:13.017Z,17.20
2018-08-13T04:43:40.574Z,17.30
2018-08-13T04:46:08.493Z,17.30
2018-08-13T04:48:35.999Z,17.30
2018-08-13T04:51:04.274Z,17.30
2018-08-13T04:53:31.794Z,17.30
2018-08-13T04:55:59.758Z,17.40
2018-08-13T04:58:27.250Z,17.50
2018-08-13T05:00:54.858Z,17.50
2018-08-13T05:03:22.502Z,17.60
2018-08-13T05:05:50.007Z,17.70
2018-08-13T05:08:17.534Z,17.90
2018-08-13T05:10:45.075Z,18.00
2018-08-13T05:13:12.581Z,18.30
2018-08-13T05:15:40.087Z,18.70
2018-08-13T05:18:07.986Z,19.10
2018-08-13T05:20:35.762Z,19.40
2018-08-13T05:23:03.282Z,19.80
2018-08-13T05:25:30.785Z,20.10
2018-08-13T05:27:58.280Z,20.10
2018-08-13T05:30:25.984Z,20.10
2018-08-13T05:32:53.473Z,20.30
2018-08-13T05:35:20.969Z,20.30
2018-08-13T05:37:48.477Z,20.30
2018-08-13T05:40:15.960Z,20.60
2018-08-13T05:42:43.475Z,21.20
2018-08-13T05:45:11.641Z,21.90
2018-08-13T05:47:39.154Z,22.30
2018-08-13T05:50:07.801Z,22.40
2018-08-13T05:52:35.475Z,22.30
2018-08-13T05:55:02.990Z,22.40
2018-08-13T05:57:30.510Z,22.30
2018-08-13T05:59:58.027Z,22.30
2018-08-13T06:02:25.802Z,21.60
2018-08-13T06:04:53.285Z,21.10
2018-08-13T06:07:21.775Z,20.80
2018-08-13T06:09:49.270Z,20.50
2018-08-13T06:12:16.945Z,20.30
2018-08-13T06:14:44.453Z,20.10
2018-08-13T06:17:11.964Z,20.00
2018-08-13T06:19:39.461Z,19.80
2018-08-13T06:22:07.119Z,19.80
2018-08-13T06:24:34.605Z,19.70
2018-08-13T06:27:02.139Z,19.70
2018-08-13T06:29:29.630Z,19.70
2018-08-13T06:31:57.908Z,19.70
2018-08-13T06:34:25.493Z,19.70
2018-08-13T06:36:52.996Z,19.60
2018-08-13T06:39:20.543Z,19.40
2018-08-13T06:41:48.038Z,19.10
2018-08-13T06:44:15.797Z,19.00
2018-08-13T06:46:43.327Z,18.80
2018-08-13T06:49:10.844Z,18.70
2018-08-13T06:51:38.356Z,18.60
2018-08-13T06:54:05.872Z,18.60
2018-08-13T06:56:33.433Z,18.80
2018-08-13T06:59:00.942Z,18.90
2018-08-13T07:01:28.610Z,19.10
2018-08-13T07:03:56.306Z,19.10
2018-08-13T07:06:23.822Z,19.10
2018-08-13T07:08:51.343Z,19.10
2018-08-13T07:11:19.255Z,19.10
2018-08-13T07:14:15.452Z,19.10
2018-08-13T07:16:42.975Z,19.10
2018-08-13T07:19:10.490Z,19.20
2018-08-13T07:21:37.976Z,19.20
2018-08-13T07:24:05.920Z,19.20
2018-08-13T07:26:35.085Z,19.20
2018-08-13T07:29:02.592Z,19.20
2018-08-13T07:31:32.587Z,19.10
2018-08-13T07:34:00.999Z,19.10
2018-08-13T07:36:28.507Z,19.10
2018-08-13T07:38:56.019Z,19.20
2018-08-13T07:41:23.509Z,19.30
2018-08-13T07:43:51.011Z,19.30
2018-08-13T07:46:18.525Z,19.40
2018-08-13T07:48:46.046Z,19.40
2018-08-13T07:51:13.630Z,19.50
2018-08-13T07:53:41.182Z,19.50
2018-08-13T07:56:09.018Z,19.40
2018-08-13T07:58:36.642Z,19.20
2018-08-13T08:01:04.137Z,18.90
2018-08-13T08:03:31.743Z,18.80
2018-08-13T08:05:59.241Z,18.70
2018-08-13T08:08:26.850Z,18.60
2018-08-13T08:10:54.336Z,18.60
2018-08-13T08:13:21.909Z,18.60
2018-08-13T08:15:49.395Z,18.80
2018-08-13T08:18:17.043Z,19.00
2018-08-13T08:20:44.544Z,19.10
2018-08-13T08:23:12.054Z,19.30
2018-08-13T08:25:39.537Z,19.30
2018-08-13T08:28:07.231Z,19.30
2018-08-13T08:30:34.873Z,19.10
2018-08-13T08:33:02.517Z,18.90
2018-08-13T08:35:30.032Z,18.80
2018-08-13T08:37:57.589Z,18.60
2018-08-13T08:40:25.158Z,18.60
2018-08-13T08:42:52.634Z,18.70
2018-08-13T08:45:20.153Z,18.70
2018-08-13T08:47:47.642Z,18.80
2018-08-13T08:50:15.258Z,18.90
2018-08-13T08:52:42.761Z,19.00
2018-08-13T08:55:11.008Z,18.90
2018-08-13T08:57:38.518Z,18.80
2018-08-13T09:00:06.981Z,18.90
2018-08-13T09:02:34.481Z,18.90
2018-08-13T09:05:01.986Z,18.70
2018-08-13T09:07:29.496Z,18.60
2018-08-13T09:09:57.047Z,18.60
2018-08-13T09:12:24.551Z,18.60
2018-08-13T09:14:52.845Z,18.30
2018-08-13T09:17:20.334Z,18.30
2018-08-13T09:19:51.398Z,18.20
2018-08-13T09:22:21.462Z,18.10
2018-08-13T09:24:51.574Z,18.30
2018-08-13T09:27:23.250Z,19.00
2018-08-13T09:29:58.357Z,19.00
2018-08-13T09:32:27.718Z,19.40
2018-08-13T09:34:55.484Z,19.40
2018-08-13T09:37:22.991Z,19.50
2018-08-13T09:39:50.535Z,19.60
2018-08-13T09:42:18.044Z,19.50
2018-08-13T09:44:45.636Z,19.40
2018-08-13T09:47:13.150Z,19.50
2018-08-13T09:49:40.651Z,19.30
2018-08-13T09:52:08.365Z,19.40
2018-08-13T09:54:35.846Z,19.80
2018-08-13T09:57:03.366Z,20.10
2018-08-13T09:59:31.496Z,20.10
2018-08-13T10:02:00.143Z,19.80
2018-08-13T10:04:28.018Z,19.70
2018-08-13T10:06:56.209Z,19.90
2018-08-13T10:09:24.397Z,20.10
2018-08-13T10:11:52.619Z,20.60
2018-08-13T10:14:20.128Z,20.80
2018-08-13T10:16:47.670Z,21.00
2018-08-13T10:19:15.243Z,21.10
2018-08-13T10:21:42.754Z,21.10
2018-08-13T10:24:10.250Z,21.20
2018-08-13T10:26:38.469Z,21.10
2018-08-13T10:29:07.214Z,21.20
2018-08-13T10:31:34.843Z,21.20
2018-08-13T10:34:02.457Z,21.20
2018-08-13T10:36:29.989Z,21.20
2018-08-13T10:38:57.474Z,21.10
2018-08-13T10:41:25.028Z,21.00
2018-08-13T10:43:52.535Z,21.00
2018-08-13T10:46:20.049Z,20.90
2018-08-13T10:48:47.549Z,20.80
2018-08-13T10:51:15.069Z,20.80
2018-08-13T10:53:42.570Z,20.80
2018-08-13T10:56:10.085Z,20.90
2018-08-13T10:58:37.586Z,21.10
2018-08-13T11:01:05.122Z,21.30
2018-08-13T11:03:32.595Z,21.40
2018-08-13T11:06:00.192Z,21.40
2018-08-13T11:08:27.698Z,21.50
2018-08-13T11:10:55.451Z,21.70
2018-08-13T11:13:23.907Z,21.80
2018-08-13T11:15:51.422Z,22.00
2018-08-13T11:18:18.916Z,22.20
2018-08-13T11:20:46.465Z,22.20
2018-08-13T11:23:13.962Z,22.40
2018-08-13T11:25:41.485Z,22.00
2018-08-13T11:28:09.128Z,22.40
2018-08-13T11:30:36.756Z,22.70
2018-08-13T11:33:04.254Z,22.90
2018-08-13T11:35:31.778Z,23.00
2018-08-13T11:37:59.337Z,23.10
2018-08-13T11:40:26.934Z,23.20
2018-08-13T11:42:54.435Z,22.90
2018-08-13T11:45:21.915Z,22.60
2018-08-13T11:47:49.443Z,22.30
2018-08-13T11:50:16.980Z,22.10
2018-08-13T11:52:45.095Z,21.80
2018-08-13T11:55:12.593Z,21.60
2018-08-13T11:57:40.104Z,21.30
2018-08-13T12:00:07.602Z,21.10
2018-08-13T12:02:35.162Z,21.10
2018-08-13T12:05:02.661Z,21.20
2018-08-13T12:07:30.257Z,21.10
2018-08-13T12:09:57.769Z,21.20
2018-08-13T12:12:25.475Z,21.20
2018-08-13T12:14:52.962Z,21.40
2018-08-13T12:17:20.503Z,21.60
2018-08-13T12:19:48.010Z,22.10
2018-08-13T12:22:15.799Z,22.60
2018-08-13T12:24:43.298Z,22.90
2018-08-13T12:27:10.821Z,23.20
2018-08-13T12:29:38.330Z,23.40
2018-08-13T12:32:05.870Z,23.30
2018-08-13T12:34:33.354Z,23.10
2018-08-13T12:37:00.865Z,23.00
2018-08-13T12:39:28.359Z,22.70
2018-08-13T12:41:55.909Z,22.50
2018-08-13T12:44:23.392Z,22.20
2018-08-13T12:46:51.385Z,22.10
2018-08-13T12:49:18.891Z,22.00
2018-08-13T12:51:46.510Z,21.90
2018-08-13T12:54:14.002Z,21.90
2018-08-13T12:56:41.510Z,22.10
2018-08-13T12:59:09.774Z,22.50
2018-08-13T13:01:37.293Z,22.50
2018-08-13T13:04:04.826Z,22.70
2018-08-13T13:06:32.321Z,23.00
2018-08-13T13:08:59.905Z,23.30
2018-08-13T13:11:27.362Z,23.40
2018-08-13T13:13:54.985Z,23.60
2018-08-13T13:16:22.489Z,24.20
2018-08-13T13:18:51.687Z,24.60
2018-08-13T13:21:19.210Z,24.60
2018-08-13T13:23:46.839Z,24.60
2018-08-13T13:26:14.346Z,24.90
2018-08-13T13:28:41.850Z,24.90
2018-08-13T13:31:09.329Z,25.00
2018-08-13T13:33:36.984Z,25.10
2018-08-13T13:36:04.475Z,25.00
2018-08-13T13:38:31.992Z,24.80
2018-08-13T13:40:59.478Z,24.50
2018-08-13T13:43:27.055Z,24.40
2018-08-13T13:45:54.550Z,24.50
2018-08-13T13:48:22.085Z,24.50
2018-08-13T13:50:50.329Z,25.20
2018-08-13T13:53:17.846Z,25.10
2018-08-13T13:55:45.474Z,25.30
2018-08-13T13:58:13.010Z,25.00
2018-08-13T14:00:40.491Z,24.80
2018-08-13T14:03:08.293Z,24.60
2018-08-13T14:05:35.822Z,24.40
2018-08-13T14:08:04.098Z,24.20
2018-08-13T14:10:31.615Z,24.20
2018-08-13T14:12:59.115Z,24.20
2018-08-13T14:15:26.779Z,24.20
2018-08-13T14:17:54.353Z,24.20
2018-08-13T14:20:21.856Z,24.00
2018-08-13T14:22:49.464Z,23.90
2018-08-13T14:25:16.954Z,23.80
2018-08-13T14:27:44.475Z,23.60
2018-08-13T14:30:12.770Z,23.80
2018-08-13T14:32:40.288Z,23.80
2018-08-13T14:35:08.324Z,23.80
2018-08-13T14:37:35.865Z,23.80
2018-08-13T14:40:03.373Z,23.60
2018-08-13T14:42:30.883Z,23.50
2018-08-13T14:44:58.394Z,23.50
2018-08-13T14:47:25.903Z,23.50
2018-08-13T14:49:53.412Z,23.70
2018-08-13T14:52:20.920Z,23.80
2018-08-13T14:54:48.431Z,23.80
2018-08-13T14:57:15.923Z,23.80
2018-08-13T14:59:43.439Z,24.00
2018-08-13T15:02:10.951Z,24.10
2018-08-13T15:04:38.482Z,24.20
2018-08-13T15:07:05.994Z,24.20
2018-08-13T15:09:33.511Z,24.20
2018-08-13T15:12:01.006Z,24.00
2018-08-13T15:14:28.512Z,23.90
2018-08-13T15:16:56.007Z,23.80
2018-08-13T15:19:23.540Z,23.80
2018-08-13T15:21:51.044Z,24.10
2018-08-13T15:24:18.546Z,24.40
2018-08-13T15:26:46.039Z,24.60
2018-08-13T15:29:13.555Z,25.00
2018-08-13T15:31:41.042Z,25.30
2018-08-13T15:34:08.775Z,25.50
2018-08-13T15:36:36.474Z,25.20
2018-08-13T15:39:04.462Z,24.90
2018-08-13T15:41:31.955Z,24.60
2018-08-13T15:43:59.462Z,24.30
2018-08-13T15:46:27.013Z,24.20
2018-08-13T15:48:54.520Z,24.20
2018-08-13T15:51:22.009Z,24.10
2018-08-13T15:53:49.506Z,24.00
2018-08-13T15:56:17.001Z,23.90
2018-08-13T15:58:44.533Z,23.90
2018-08-13T16:01:12.019Z,23.80
2018-08-13T16:03:39.516Z,23.80
2018-08-13T16:06:08.044Z,23.90
2018-08-13T16:08:35.778Z,23.90
2018-08-13T16:11:03.284Z,23.90
2018-08-13T16:13:30.808Z,23.80
2018-08-13T16:15:58.284Z,23.80
2018-08-13T16:18:25.796Z,23.90
2018-08-13T16:20:53.301Z,24.00
2018-08-13T16:23:20.791Z,24.00
2018-08-13T16:25:48.324Z,24.10
2018-08-13T16:28:16.918Z,24.10
2018-08-13T16:30:44.409Z,24.10
2018-08-13T16:33:11.907Z,24.10
2018-08-13T16:35:39.406Z,24.00
2018-08-13T16:38:06.945Z,23.90
2018-08-13T16:40:34.518Z,23.90
2018-08-13T16:43:02.014Z,23.80
2018-08-13T16:45:29.604Z,23.70
2018-08-13T16:47:57.083Z,23.70
2018-08-13T16:50:24.587Z,23.60
2018-08-13T16:52:52.076Z,23.60
2018-08-13T16:55:19.589Z,23.50
2018-08-13T16:57:47.086Z,23.40
2018-08-13T17:00:14.589Z,23.30
2018-08-13T17:02:42.106Z,23.20
2018-08-13T17:05:10.278Z,23.20
2018-08-13T17:07:37.757Z,23.20
2018-08-13T17:10:05.522Z,23.10
2018-08-13T17:12:33.012Z,23.20
2018-08-13T17:15:00.547Z,23.20
2018-08-13T17:17:28.039Z,23.20
2018-08-13T17:19:55.799Z,23.10
2018-08-13T17:22:24.491Z,22.90
2018-08-13T17:24:52.163Z,22.90
2018-08-13T17:27:19.654Z,22.80
2018-08-13T17:29:47.163Z,22.70
2018-08-13T17:32:14.650Z,22.60
2018-08-13T17:34:42.183Z,22.60
2018-08-13T17:37:09.849Z,22.50
2018-08-13T17:39:37.358Z,22.50
2018-08-13T17:42:05.012Z,22.40
2018-08-13T17:44:32.550Z,22.30
2018-08-13T17:47:00.069Z,22.20
2018-08-13T17:49:27.594Z,22.10
2018-08-13T17:51:55.087Z,22.00
2018-08-13T17:54:22.711Z,21.90
2018-08-13T17:56:51.093Z,21.90
2018-08-13T17:59:18.581Z,21.90
2018-08-13T18:01:46.180Z,21.80
2018-08-13T18:04:13.628Z,21.80
2018-08-13T18:06:41.144Z,21.80
2018-08-13T18:09:09.850Z,21.80
2018-08-13T18:11:37.486Z,21.70
2018-08-13T18:14:05.016Z,21.70
2018-08-13T18:16:32.559Z,21.70
2018-08-13T18:19:00.050Z,21.70
2018-08-13T18:21:27.588Z,21.70
2018-08-13T18:23:55.081Z,21.70
2018-08-13T18:26:22.640Z,21.70
2018-08-13T18:28:50.176Z,21.70
2018-08-13T18:31:18.454Z,21.80
2018-08-13T18:33:45.951Z,21.90
2018-08-13T18:36:13.457Z,21.80
2018-08-13T18:38:40.946Z,21.50
2018-08-13T18:41:08.657Z,21.20
2018-08-13T18:43:36.303Z,21.00
2018-08-13T18:46:03.806Z,20.80
2018-08-13T18:48:31.317Z,20.60
2018-08-13T18:50:59.073Z,20.40
2018-08-13T18:53:27.355Z,20.00
2018-08-13T18:55:55.054Z,20.00
2018-08-13T18:58:22.650Z,19.90
2018-08-13T19:00:50.179Z,19.80
2018-08-13T19:03:18.592Z,19.70
2018-08-13T19:05:46.181Z,19.70
2018-08-13T19:08:13.775Z,19.70
2018-08-13T19:10:41.297Z,19.60
2018-08-13T19:13:09.057Z,19.60
2018-08-13T19:15:37.010Z,19.60
2018-08-13T19:18:04.559Z,19.60
2018-08-13T19:20:32.064Z,19.70
2018-08-13T19:22:59.561Z,19.70
2018-08-13T19:25:27.850Z,19.70
2018-08-13T19:27:55.493Z,19.70
2018-08-13T19:30:23.021Z,19.80
2018-08-13T19:32:50.531Z,19.90
2018-08-13T19:35:18.011Z,19.90
2018-08-13T19:37:45.796Z,20.00
2018-08-13T19:40:13.825Z,20.00
2018-08-13T19:42:41.336Z,19.90
2018-08-13T19:45:08.855Z,19.90
2018-08-13T19:47:36.477Z,19.80
2018-08-13T19:50:04.037Z,19.80
2018-08-13T19:52:31.682Z,19.80
2018-08-13T19:54:59.344Z,19.70
2018-08-13T19:57:27.024Z,19.60
2018-08-13T19:59:54.550Z,19.70
2018-08-13T20:02:22.055Z,19.70
2018-08-13T20:04:49.542Z,19.70
2018-08-13T20:07:17.056Z,19.60
2018-08-13T20:09:44.559Z,19.70
2018-08-13T20:12:12.087Z,19.60
2018-08-13T20:14:39.579Z,19.60
2018-08-13T20:17:07.107Z,19.60
2018-08-13T20:19:34.635Z,19.60
2018-08-13T20:22:02.221Z,19.60
2018-08-13T20:24:29.718Z,19.60
2018-08-13T20:26:57.251Z,19.50
2018-08-13T20:29:24.868Z,19.50
2018-08-13T20:31:52.482Z,19.50
2018-08-13T20:34:19.998Z,19.60
2018-08-13T20:36:47.566Z,19.60
2018-08-13T20:39:15.858Z,19.60
2018-08-13T20:41:43.365Z,19.60
2018-08-13T20:44:11.060Z,19.50
2018-08-13T20:46:39.333Z,19.40
2018-08-13T20:49:07.590Z,19.40
2018-08-13T20:51:35.117Z,19.40
2018-08-13T20:54:02.608Z,19.30
2018-08-13T20:56:30.179Z,19.30
2018-08-13T20:58:57.682Z,19.20
2018-08-13T21:01:25.459Z,19.20
2018-08-13T21:03:53.273Z,19.20
2018-08-13T21:06:20.765Z,19.20
2018-08-13T21:08:48.310Z,19.10
2018-08-13T21:11:15.975Z,19.10
2018-08-13T21:13:43.502Z,19.10
2018-08-13T21:16:11.231Z,19.10
2018-08-13T21:18:38.737Z,19.00
2018-08-13T21:21:06.450Z,19.00
2018-08-13T21:23:33.984Z,19.00
2018-08-13T21:26:01.562Z,19.00
2018-08-13T21:28:29.066Z,18.90
2018-08-13T21:30:57.343Z,18.80
2018-08-13T21:33:25.107Z,18.80
2018-08-13T21:35:52.650Z,18.80
2018-08-13T21:38:21.595Z,18.80
2018-08-13T21:40:49.942Z,18.80
2018-08-13T21:43:17.463Z,18.80
2018-08-13T21:45:45.952Z,18.80
2018-08-13T21:48:15.263Z,18.90
2018-08-13T21:50:42.752Z,18.90
2018-08-13T21:53:10.268Z,19.00
2018-08-13T21:55:37.798Z,19.00
2018-08-13T21:58:05.466Z,19.00
2018-08-13T22:00:32.949Z,19.00
2018-08-13T22:03:00.442Z,19.00
2018-08-13T22:05:28.918Z,19.00
2018-08-13T22:07:57.052Z,18.90
2018-08-13T22:10:24.587Z,18.90
2018-08-13T22:12:52.098Z,18.80
2018-08-13T22:15:19.592Z,18.80
2018-08-13T22:17:47.915Z,18.80
2018-08-13T22:20:15.929Z,18.70
2018-08-13T22:22:43.443Z,18.70
2018-08-13T22:25:11.032Z,18.60
2018-08-13T22:27:38.557Z,18.50
2018-08-13T22:30:06.057Z,18.50
2018-08-13T22:32:33.557Z,18.50
2018-08-13T22:35:01.064Z,18.50
2018-08-13T22:37:28.551Z,18.50
2018-08-13T22:39:56.067Z,18.50
2018-08-13T22:42:23.639Z,18.60
2018-08-13T22:44:51.167Z,18.60
2018-08-13T22:47:21.529Z,18.70
2018-08-13T22:49:49.053Z,18.70
2018-08-13T22:52:16.696Z,18.70
2018-08-13T22:54:44.204Z,18.60
2018-08-13T22:57:11.702Z,18.60
2018-08-13T22:59:39.224Z,18.60
2018-08-13T23:02:06.880Z,18.60
2018-08-13T23:04:34.495Z,18.60
2018-08-13T23:07:01.973Z,18.60
2018-08-13T23:09:29.506Z,18.60
2018-08-13T23:11:57.005Z,18.60
2018-08-13T23:14:24.517Z,18.50
2018-08-13T23:16:52.002Z,18.50
2018-08-13T23:19:19.520Z,18.50
2018-08-13T23:21:47.774Z,18.50
2018-08-13T23:24:15.536Z,18.50
2018-08-13T23:26:43.023Z,18.50
2018-08-13T23:29:10.525Z,18.50
2018-08-13T23:31:39.705Z,18.50
2018-08-13T23:34:07.985Z,18.60
2018-08-13T23:36:35.570Z,18.50
2018-08-13T23:39:03.099Z,18.60
2018-08-13T23:41:31.079Z,18.60
2018-08-13T23:43:58.677Z,18.60
2018-08-13T23:46:26.296Z,18.60
2018-08-13T23:48:53.818Z,18.60
2018-08-13T23:51:21.356Z,18.60
2018-08-13T23:53:48.855Z,18.60
2018-08-13T23:56:16.646Z,18.50
2018-08-13T23:58:44.167Z,18.40
